Time;durP1;ratioP1;P1;durP2;ratioP2;P2;SDS_P1;SDS_P2;PMS_P1;PMS_P2;Temp;Humidity;BMP_temperature;BMP_pressure;BME280_temperature;BME280_humidity;BME280_pressure;Samples;Min_cycle;Max_cycle;Signal;HPM_P1;HPM_P2
2023/05/02 00:01:55;;;;;;;;;12.00;9.67;;;;;14.15;100.00;101909.47;5033724;28;45530;-72
2023/05/02 00:04:21;;;;;;;;;13.00;8.67;;;;;14.16;100.00;101913.91;5039798;28;45325;-72
2023/05/02 00:06:46;;;;;;;;;7.67;7.33;;;;;14.11;100.00;101910.31;5034533;28;46583;-72
2023/05/02 00:09:12;;;;;;;;;9.67;7.00;;;;;14.10;100.00;101913.81;5049535;28;64395;-72
2023/05/02 00:11:37;;;;;;;;;8.00;8.00;;;;;14.06;100.00;101909.38;5027455;28;45364;-71
2023/05/02 00:14:03;;;;;;;;;7.00;6.00;;;;;14.03;100.00;101906.66;5027042;28;61590;-72
2023/05/02 00:16:28;;;;;;;;;14.00;11.00;;;;;14.01;100.00;101907.47;5031645;28;63624;-72
2023/05/02 00:18:53;;;;;;;;;9.67;6.67;;;;;13.98;100.00;101911.00;5041246;28;56686;-72
2023/05/02 00:21:19;;;;;;;;;13.33;10.00;;;;;13.92;100.00;101913.56;5027430;28;64984;-72
2023/05/02 00:23:44;;;;;;;;;12.67;10.33;;;;;13.89;100.00;101908.19;5032623;28;45339;-71
2023/05/02 00:26:10;;;;;;;;;14.00;11.33;;;;;13.88;100.00;101912.63;5024413;28;46067;-72
2023/05/02 00:28:35;;;;;;;;;8.67;8.67;;;;;13.87;100.00;101908.19;5025756;28;45497;-71
2023/05/02 00:31:01;;;;;;;;;13.67;9.67;;;;;13.84;100.00;101899.28;5020367;28;45276;-72
2023/05/02 00:33:26;;;;;;;;;14.67;10.00;;;;;13.83;100.00;101903.69;5018558;28;45280;-72
2023/05/02 00:35:51;;;;;;;;;12.00;10.67;;;;;13.83;100.00;101902.81;5054462;28;45701;-72
2023/05/02 00:38:17;;;;;;;;;10.00;7.00;;;;;13.81;100.00;101894.84;5048405;28;45310;-71
2023/05/02 00:40:47;;;;;;;;;13.67;10.00;;;;;13.81;100.00;101894.84;5042792;28;45427;-71
2023/05/02 00:43:13;;;;;;;;;14.00;11.67;;;;;13.81;100.00;101900.13;5006323;28;45243;-71
2023/05/02 00:45:45;;;;;;;;;10.00;10.00;;;;;13.78;100.00;101881.50;5022439;28;45514;-72
2023/05/02 00:48:11;;;;;;;;;13.67;11.00;;;;;13.79;100.00;101896.56;5025751;28;45511;-72
2023/05/02 00:50:37;;;;;;;;;13.33;12.00;;;;;13.79;100.00;101895.66;5022589;28;45283;-72
2023/05/02 00:53:04;;;;;;;;;14.50;13.75;;;;;13.78;100.00;101902.75;5036813;28;45502;-71
2023/05/02 00:55:31;;;;;;;;;14.33;12.33;;;;;13.76;100.00;101896.53;5025938;28;45408;-72
2023/05/02 00:57:57;;;;;;;;;14.33;10.67;;;;;13.74;100.00;101910.63;5030226;28;45288;-71
2023/05/02 01:00:47;;;;;;;;;12.67;11.67;;;;;13.73;100.00;101907.09;5025446;28;45335;-72
2023/05/02 01:03:28;;;;;;;;;15.00;12.00;;;;;13.70;100.00;101903.50;5005860;28;46366;-72
2023/05/02 01:06:07;;;;;;;;;10.00;10.00;;;;;13.68;100.00;101908.78;5051516;28;46750;-70
2023/05/02 01:08:46;;;;;;;;;11.33;10.00;;;;;13.66;100.00;101899.91;5049425;28;45343;-72
2023/05/02 01:11:20;;;;;;;;;12.75;10.75;;;;;13.69;100.00;101907.00;5024490;28;45328;-71
2023/05/02 01:13:46;;;;;;;;;12.33;10.67;;;;;13.68;100.00;101907.88;5026606;28;45470;-71
2023/05/02 01:16:13;;;;;;;;;12.67;11.00;;;;;13.65;100.00;101902.53;5033471;28;66139;-71
2023/05/02 01:18:41;;;;;;;;;11.00;10.00;;;;;13.67;100.00;101908.75;5029236;28;45431;-72
2023/05/02 01:21:08;;;;;;;;;13.67;10.33;;;;;13.65;100.00;101913.16;5029065;28;45430;-71
2023/05/02 01:23:48;;;;;;;;;12.00;8.33;;;;;13.67;100.00;101914.06;5031437;28;45286;-72
2023/05/02 01:26:28;;;;;;;;;10.00;10.00;;;;;13.64;100.00;101912.28;5030096;28;45416;-71
2023/05/02 01:29:01;;;;;;;;;11.00;10.00;;;;;13.62;100.00;101909.56;5024533;28;45340;-71
2023/05/02 01:31:45;;;;;;;;;11.00;10.00;;;;;13.59;100.00;101913.97;5024360;28;45535;-71
2023/05/02 01:34:11;;;;;;;;;16.33;11.33;;;;;13.59;100.00;101917.50;5009119;28;45160;-71
2023/05/02 01:36:47;;;;;;;;;14.67;11.33;;;;;13.59;100.00;101925.47;5165852;22;61950;-71
2023/05/02 01:39:18;;;;;;;;;18.67;13.00;;;;;13.57;100.00;101924.53;5057700;28;45462;-71
2023/05/02 01:41:45;;;;;;;;;12.67;12.00;;;;;13.55;100.00;101926.28;5067446;28;45707;-71
2023/05/02 01:44:12;;;;;;;;;20.33;14.00;;;;;13.51;100.00;101918.22;5045552;28;45550;-70
2023/05/02 01:46:39;;;;;;;;;17.25;14.75;;;;;13.52;100.00;101915.59;5053719;28;69678;-72
2023/05/02 01:49:06;;;;;;;;;13.00;11.33;;;;;13.51;100.00;101912.94;5055393;28;45485;-71
2023/05/02 01:51:33;;;;;;;;;14.33;12.67;;;;;13.50;100.00;101914.69;5050624;28;45565;-71
2023/05/02 01:54:00;;;;;;;;;15.00;13.00;;;;;13.48;100.00;101913.78;5055891;28;45459;-71
2023/05/02 01:56:27;;;;;;;;;13.33;11.00;;;;;13.48;100.00;101910.25;5052387;28;46966;-71
2023/05/02 01:58:54;;;;;;;;;16.33;13.00;;;;;13.48;100.00;101911.13;5046803;28;46710;-71
2023/05/02 02:01:19;;;;;;;;;14.33;11.67;;;;;13.48;100.00;101911.13;5047850;28;45311;-71
2023/05/02 02:03:46;;;;;;;;;16.50;14.00;;;;;13.47;100.00;101905.78;5050900;28;61606;-72
2023/05/02 02:06:12;;;;;;;;;15.00;12.67;;;;;13.46;100.00;101912.84;5068378;28;45481;-71
2023/05/02 02:08:38;;;;;;;;;26.67;18.33;;;;;13.46;100.00;101914.63;5049702;28;45417;-71
2023/05/02 02:11:09;;;;;;;;;19.00;13.50;;;;;13.42;100.00;101908.34;5043888;28;59821;-72
2023/05/02 02:13:38;;;;;;;;;15.67;12.33;;;;;13.42;100.00;101926.91;5052592;28;45382;-71
2023/05/02 02:16:04;;;;;;;;;15.67;13.33;;;;;13.39;100.00;101916.28;5056225;28;46682;-71
2023/05/02 02:18:35;;;;;;;;;13.67;11.33;;;;;13.38;100.00;101919.81;5046792;28;45355;-71
2023/05/02 02:21:01;;;;;;;;;17.75;15.50;;;;;13.36;100.00;101919.75;5071800;28;45343;-71
2023/05/02 02:23:28;;;;;;;;;18.33;13.33;;;;;13.37;100.00;101928.63;5053567;28;60944;-71
2023/05/02 02:25:54;;;;;;;;;13.50;13.25;;;;;13.35;100.00;101920.63;5050230;28;46494;-71
2023/05/02 02:28:19;;;;;;;;;16.25;15.25;;;;;13.31;100.00;101917.88;5051488;28;45586;-71
2023/05/02 02:30:45;;;;;;;;;16.50;13.75;;;;;13.32;100.00;101925.00;5043235;28;45533;-70
2023/05/02 02:33:10;;;;;;;;;18.25;13.25;;;;;13.31;100.00;101931.16;5050961;28;45478;-72
2023/05/02 02:35:45;;;;;;;;;18.25;14.00;;;;;13.27;100.00;101927.56;5041974;28;63134;-71
2023/05/02 02:38:18;;;;;;;;;16.25;13.75;;;;;13.24;100.00;101924.84;5070515;28;45506;-71
2023/05/02 02:40:56;;;;;;;;;20.33;14.00;;;;;13.20;100.00;101928.28;5071737;28;45503;-70
2023/05/02 02:43:57;;;;;;;;;17.75;15.25;;;;;13.22;100.00;101931.91;5043218;28;45276;-71
2023/05/02 02:46:28;;;;;;;;;19.00;15.25;;;;;13.23;100.00;101939.00;5033252;28;45546;-72
2023/05/02 02:49:20;;;;;;;;;20.67;19.00;;;;;13.23;100.00;101946.06;5042225;28;45320;-70
2023/05/02 02:52:25;;;;;;;;;15.75;14.00;;;;;13.22;100.00;101945.16;5040628;28;45391;-71
2023/05/02 02:54:57;;;;;;;;;17.75;13.75;;;;;13.20;100.00;101945.94;5000530;28;45520;-71
2023/05/02 02:57:27;;;;;;;;;19.00;15.75;;;;;13.21;100.00;101937.13;5050168;28;46883;-71
2023/05/02 03:00:09;;;;;;;;;17.75;13.75;;;;;13.20;100.00;101935.34;5055000;28;45659;-71
2023/05/02 03:02:35;;;;;;;;;20.50;14.75;;;;;13.18;100.00;101942.41;5043627;28;45204;-71
2023/05/02 03:05:02;;;;;;;;;16.50;14.25;;;;;13.16;100.00;101952.09;5069755;28;45667;-71
2023/05/02 03:07:28;;;;;;;;;15.25;14.75;;;;;13.11;100.00;101941.41;5054223;28;46695;-71
2023/05/02 03:09:53;;;;;;;;;18.25;17.75;;;;;13.10;100.00;101948.47;5051435;28;45346;-72
2023/05/02 03:12:19;;;;;;;;;15.33;13.33;;;;;13.06;100.00;101943.97;5050847;28;63185;-71
2023/05/02 03:14:45;;;;;;;;;19.75;15.75;;;;;13.05;100.00;101939.53;5054468;28;45232;-71
2023/05/02 03:17:10;;;;;;;;;17.50;14.50;;;;;13.02;100.00;101941.22;5051089;28;57556;-70
2023/05/02 03:19:36;;;;;;;;;19.00;14.50;;;;;12.94;100.00;101938.41;5049448;28;65021;-71
2023/05/02 03:22:02;;;;;;;;;20.25;17.75;;;;;12.99;100.00;101950.00;5033834;28;45327;-71
2023/05/02 03:24:27;;;;;;;;;20.50;15.00;;;;;12.96;100.00;101942.00;5042064;28;45345;-71
2023/05/02 03:26:57;;;;;;;;;17.67;16.67;;;;;12.94;100.00;101943.72;5044587;28;45668;-71
2023/05/02 03:29:24;;;;;;;;;21.50;18.00;;;;;12.95;100.00;101944.63;5038743;28;45216;-71
2023/05/02 03:31:50;;;;;;;;;19.00;13.00;;;;;12.94;100.00;101953.41;5041578;28;45447;-71
2023/05/02 03:34:15;;;;;;;;;21.50;16.25;;;;;12.91;100.00;101954.28;5054841;28;45308;-71
2023/05/02 03:36:41;;;;;;;;;20.25;14.00;;;;;12.89;100.00;101958.66;5051776;28;46155;-71
2023/05/02 03:39:06;;;;;;;;;17.50;16.75;;;;;12.86;100.00;101953.28;5054828;28;45299;-71
2023/05/02 03:41:31;;;;;;;;;20.00;13.75;;;;;12.85;100.00;101955.03;5053423;28;46259;-71
2023/05/02 03:43:57;;;;;;;;;15.25;13.25;;;;;12.83;100.00;101956.75;5054127;28;53181;-71
2023/05/02 03:46:22;;;;;;;;;20.00;15.00;;;;;12.81;100.00;101947.88;5050238;28;69498;-71
2023/05/02 03:48:47;;;;;;;;;22.00;17.75;;;;;12.79;100.00;101948.75;5054758;28;62963;-71
2023/05/02 03:51:13;;;;;;;;;16.50;13.75;;;;;12.81;100.00;101963.78;5050726;28;60101;-71
2023/05/02 03:53:38;;;;;;;;;18.00;14.00;;;;;12.80;100.00;101950.53;5048339;28;45182;-71
2023/05/02 03:56:04;;;;;;;;;20.75;14.50;;;;;12.79;100.00;101962.88;5048336;28;45889;-71
2023/05/02 03:58:29;;;;;;;;;17.00;17.00;;;;;12.79;100.00;101967.28;5048869;28;45429;-71
2023/05/02 04:00:55;;;;;;;;;17.25;14.00;;;;;12.77;100.00;101961.03;5050953;28;60656;-71
2023/05/02 04:03:21;;;;;;;;;21.50;17.50;;;;;12.76;100.00;101956.63;5040634;28;45459;-71
2023/05/02 04:05:46;;;;;;;;;21.75;18.00;;;;;12.74;100.00;101955.69;5054154;28;46540;-71
2023/05/02 04:08:12;;;;;;;;;18.75;15.00;;;;;12.70;100.00;101946.78;5041232;28;45385;-71
2023/05/02 04:10:38;;;;;;;;;17.25;17.25;;;;;12.70;100.00;101961.78;5050228;28;45495;-71
2023/05/02 04:13:03;;;;;;;;;14.25;14.25;;;;;12.69;100.00;101963.56;5057268;28;45381;-71
2023/05/02 04:15:29;;;;;;;;;18.50;16.00;;;;;12.67;100.00;101959.97;5058448;28;46073;-71
2023/05/02 04:17:56;;;;;;;;;16.75;13.75;;;;;12.65;100.00;101961.69;5055958;28;45374;-71
2023/05/02 04:20:22;;;;;;;;;17.50;15.75;;;;;12.62;100.00;101964.28;5046789;28;45465;-71
2023/05/02 04:22:49;;;;;;;;;20.25;17.75;;;;;12.59;100.00;101973.06;5064049;28;56428;-70
2023/05/02 04:25:14;;;;;;;;;21.25;17.75;;;;;12.60;100.00;101976.59;5052121;28;46023;-71
2023/05/02 04:27:39;;;;;;;;;18.50;17.50;;;;;12.59;100.00;101978.38;5056422;28;65300;-71
2023/05/02 04:30:05;;;;;;;;;19.00;18.00;;;;;12.59;100.00;101986.31;5056576;28;61024;-71
2023/05/02 04:32:31;;;;;;;;;25.00;22.50;;;;;12.62;100.00;101992.53;5044548;28;45515;-69
2023/05/02 04:34:56;;;;;;;;;26.00;22.00;;;;;12.63;100.00;101989.03;5045316;28;54502;-69
2023/05/02 04:37:21;;;;;;;;;29.75;22.25;;;;;12.64;100.00;101993.47;5045865;28;63802;-70
2023/05/02 04:39:47;;;;;;;;;31.25;25.25;;;;;12.63;100.00;101994.34;5059146;28;45497;-70
2023/05/02 04:42:12;;;;;;;;;25.25;21.50;;;;;12.64;100.00;101997.00;5056348;28;45331;-71
2023/05/02 04:44:37;;;;;;;;;27.25;21.75;;;;;12.64;100.00;101989.06;5054981;28;46641;-70
2023/05/02 04:47:03;;;;;;;;;26.25;20.75;;;;;12.67;100.00;102002.34;5052436;28;47852;-70
2023/05/02 04:49:29;;;;;;;;;30.25;23.50;;;;;12.67;100.00;102002.34;5053052;28;45386;-71
2023/05/02 04:51:54;;;;;;;;;32.00;27.75;;;;;12.65;100.00;102003.19;5046593;28;45522;-71
2023/05/02 04:54:20;;;;;;;;;23.75;22.25;;;;;12.63;100.00;102003.19;5048667;28;69808;-71
2023/05/02 04:56:46;;;;;;;;;26.50;21.00;;;;;12.65;100.00;102013.81;5042735;28;45356;-71
2023/05/02 04:59:11;;;;;;;;;25.25;22.00;;;;;12.66;100.00;102007.63;5053841;28;45444;-71
2023/05/02 05:01:37;;;;;;;;;27.00;22.50;;;;;12.68;100.00;102009.47;5046148;28;56311;-72
2023/05/02 05:04:02;;;;;;;;;24.75;23.50;;;;;12.73;100.00;102012.19;5041216;28;65148;-71
2023/05/02 05:06:27;;;;;;;;;25.50;22.00;;;;;12.75;100.00;102014.03;5048309;28;45868;-71
2023/05/02 05:08:53;;;;;;;;;28.50;23.25;;;;;12.77;100.00;102006.09;5039395;28;45312;-71
2023/05/02 05:11:18;;;;;;;;;28.75;23.50;;;;;12.84;100.00;102016.00;5042010;28;53094;-71
2023/05/02 05:13:43;;;;;;;;;27.50;23.50;;;;;12.86;100.00;102027.50;5057592;28;46602;-71
2023/05/02 05:16:09;;;;;;;;;21.75;16.25;;;;;12.91;100.00;102031.16;5053320;28;45426;-70
2023/05/02 05:18:40;;;;;;;;;21.75;20.00;;;;;12.94;100.00;102031.19;5056783;28;45385;-70
2023/05/02 05:21:06;;;;;;;;;28.75;22.50;;;;;12.95;100.00;102035.66;5049319;28;45311;-71
2023/05/02 05:23:33;;;;;;;;;22.50;18.50;;;;;12.96;100.00;102036.53;5052448;28;45397;-71
2023/05/02 05:26:08;;;;;;;;;26.75;21.00;;;;;12.93;100.00;102031.16;5045769;28;45304;-71
2023/05/02 05:28:33;;;;;;;;;23.75;19.75;;;;;12.95;100.00;102040.06;5043329;28;45335;-70
2023/05/02 05:31:06;;;;;;;;;30.25;19.25;;;;;12.94;100.00;102047.09;5042043;28;61272;-70
2023/05/02 05:33:32;;;;;;;;;26.75;19.50;;;;;12.96;100.00;102053.34;5045424;28;46774;-70
2023/05/02 05:36:09;;;;;;;;;31.25;21.00;;;;;12.99;100.00;102053.38;5040323;28;45592;-70
2023/05/02 05:38:35;;;;;;;;;24.75;20.00;;;;;13.02;100.00;102050.81;5053329;28;45562;-70
2023/05/02 05:41:00;;;;;;;;;27.25;23.00;;;;;13.06;100.00;102060.63;5056054;28;45207;-70
2023/05/02 05:43:27;;;;;;;;;36.75;21.00;;;;;13.10;100.00;102061.56;5050073;28;45499;-71
2023/05/02 05:45:53;;;;;;;;;25.00;22.50;;;;;13.13;100.00;102061.63;5066690;28;45378;-72
2023/05/02 05:48:18;;;;;;;;;29.00;22.50;;;;;13.16;100.00;102074.97;5053696;28;45486;-70
2023/05/02 05:50:43;;;;;;;;;22.50;20.25;;;;;13.19;100.00;102068.81;5053071;28;45519;-71
2023/05/02 05:53:09;;;;;;;;;20.75;17.75;;;;;13.21;100.00;102072.38;5043142;28;71305;-71
2023/05/02 05:55:35;;;;;;;;;23.00;20.75;;;;;13.19;100.00;102082.09;5042204;28;45422;-72
2023/05/02 05:58:00;;;;;;;;;20.00;17.50;;;;;13.17;100.00;102078.53;5042013;28;45348;-70
2023/05/02 06:00:26;;;;;;;;;22.50;21.00;;;;;13.16;100.00;102074.97;5042809;28;56713;-71
2023/05/02 06:02:51;;;;;;;;;27.25;22.75;;;;;13.20;100.00;102090.06;5040469;28;45614;-71
2023/05/02 06:05:16;;;;;;;;;27.00;19.25;;;;;13.23;100.00;102089.28;5046938;28;45379;-70
2023/05/02 06:07:42;;;;;;;;;28.50;21.25;;;;;13.24;100.00;102089.31;5043171;28;45487;-70
2023/05/02 06:10:08;;;;;;;;;28.50;23.00;;;;;13.28;100.00;102091.16;5037018;28;55228;-71
2023/05/02 06:12:34;;;;;;;;;27.75;18.50;;;;;13.33;100.00;102091.25;5048411;28;48470;-71
2023/05/02 06:15:00;;;;;;;;;23.25;18.50;;;;;13.36;100.00;102096.59;5054510;28;68314;-71
2023/05/02 06:17:25;;;;;;;;;25.25;21.25;;;;;13.42;100.00;102101.13;5052787;28;45214;-71
2023/05/02 06:19:51;;;;;;;;;24.50;18.25;;;;;13.44;100.00;102096.78;5050461;28;45583;-71
2023/05/02 06:22:16;;;;;;;;;22.50;20.25;;;;;13.47;100.00;102100.34;5050495;28;46956;-71
2023/05/02 06:24:41;;;;;;;;;19.50;17.00;;;;;13.46;100.00;102103.88;5046613;28;62989;-71
2023/05/02 06:27:06;;;;;;;;;20.25;17.25;;;;;13.46;100.00;102114.50;5045702;28;45277;-71
2023/05/02 06:29:32;;;;;;;;;18.25;18.25;;;;;13.49;100.00;102108.38;5042337;28;57963;-71
2023/05/02 06:31:57;;;;;;;;;20.00;16.75;;;;;13.49;100.00;102109.25;5045479;28;63739;-71
2023/05/02 06:34:22;;;;;;;;;18.75;14.25;;;;;13.51;100.00;102123.44;5046893;28;68323;-70
2023/05/02 06:36:48;;;;;;;;;19.50;18.00;;;;;13.51;100.00;102118.13;5042747;28;45177;-71
2023/05/02 06:39:13;;;;;;;;;20.25;16.75;;;;;13.51;100.00;102122.56;5055047;28;60329;-71
2023/05/02 06:41:38;;;;;;;;;17.00;16.75;;;;;13.48;100.00;102125.16;5050458;28;46063;-71
2023/05/02 06:44:04;;;;;;;;;21.75;14.00;;;;;13.44;100.00;102126.84;5053276;28;45481;-71
2023/05/02 06:46:30;;;;;;;;;20.50;19.25;;;;;13.45;100.00;102127.75;5051534;28;45283;-71
2023/05/02 06:48:55;;;;;;;;;24.50;19.25;;;;;13.47;100.00;102133.97;5050654;28;45655;-71
2023/05/02 06:51:21;;;;;;;;;21.00;19.25;;;;;13.52;100.00;102127.88;5048188;28;46581;-71
2023/05/02 06:53:46;;;;;;;;;20.50;16.00;;;;;13.57;100.00;102133.28;5042069;28;45384;-71
2023/05/02 06:56:12;;;;;;;;;15.25;14.00;;;;;13.59;100.00;102123.59;5044424;28;45489;-72
2023/05/02 06:58:37;;;;;;;;;21.50;18.75;;;;;13.62;100.00;102127.19;5047533;28;45336;-70
2023/05/02 07:01:02;;;;;;;;;16.25;15.50;;;;;13.68;100.00;102139.69;5047572;28;63922;-71
2023/05/02 07:03:28;;;;;;;;;15.00;12.25;;;;;13.72;100.00;102144.19;5044409;28;65474;-71
2023/05/02 07:05:53;;;;;;;;;6.50;1.50;;;;;13.75;100.00;102127.44;5054371;28;45873;-71
2023/05/02 07:08:21;;;;;;;;;20.25;16.75;;;;;13.82;100.00;102143.50;5036722;28;55217;-71
2023/05/02 07:10:46;;;;;;;;;18.50;16.00;;;;;13.88;100.00;102130.34;5036396;28;46471;-72
2023/05/02 07:13:11;;;;;;;;;33.00;20.75;;;;;13.98;100.00;102134.06;5046995;28;54548;-71
2023/05/02 07:15:37;;;;;;;;;24.50;17.00;;;;;14.01;100.00;102134.13;5052526;28;52825;-71
2023/05/02 07:18:02;;;;;;;;;22.75;19.50;;;;;14.03;100.00;102131.50;5050287;28;50067;-71
2023/05/02 07:20:27;;;;;;;;;20.50;19.25;;;;;14.06;100.00;102129.78;5050344;28;47009;-70
2023/05/02 07:22:53;;;;;;;;;23.75;19.00;;;;;14.12;100.00;102137.88;5045752;28;60237;-70
2023/05/02 07:25:18;;;;;;;;;19.50;17.00;;;;;14.14;100.00;102132.56;5051013;28;45626;-71
2023/05/02 07:27:43;;;;;;;;;21.25;17.50;;;;;14.16;100.00;102137.03;5045884;28;45344;-71
2023/05/02 07:30:09;;;;;;;;;18.00;16.50;;;;;14.19;100.00;102137.97;5049907;28;45829;-71
2023/05/02 07:32:35;;;;;;;;;29.75;21.25;;;;;14.21;100.00;102149.50;5043681;28;45287;-71
2023/05/02 07:35:00;;;;;;;;;23.75;18.00;;;;;14.23;100.00;102147.78;5044756;28;61984;-71
2023/05/02 07:37:26;;;;;;;;;24.75;19.00;;;;;14.23;100.00;102148.69;5046407;28;45458;-70
2023/05/02 07:39:51;;;;;;;;;23.25;18.25;;;;;14.31;100.00;102146.13;5055214;28;46275;-71
2023/05/02 07:42:16;;;;;;;;;26.50;19.00;;;;;14.38;100.00;102150.66;5050987;28;45375;-71
2023/05/02 07:44:42;;;;;;;;;25.50;23.25;;;;;14.43;100.00;102151.63;5052413;28;58774;-71
2023/05/02 07:47:07;;;;;;;;;26.50;24.00;;;;;14.47;100.00;102158.84;5053846;28;52926;-72
2023/05/02 07:49:33;;;;;;;;;23.50;20.00;;;;;14.46;100.00;102151.69;5050938;28;46497;-71
2023/05/02 07:51:58;;;;;;;;;26.00;20.00;;;;;14.49;100.00;102153.53;5044761;28;45321;-71
2023/05/02 07:54:26;;;;;;;;;25.75;24.50;;;;;14.49;100.00;102151.81;5047483;28;61180;-72
2023/05/02 07:56:52;;;;;;;;;25.25;19.50;;;;;14.47;100.00;102161.50;5042676;28;45412;-71
2023/05/02 07:59:17;;;;;;;;;29.00;23.25;;;;;14.45;100.00;102160.56;5043934;28;46358;-71
2023/05/02 08:01:43;;;;;;;;;28.00;24.00;;;;;14.41;100.00;102158.69;5045414;28;64618;-70
2023/05/02 08:04:11;;;;;;;;;21.25;21.00;;;;;14.41;100.00;102164.03;5041557;28;45398;-70
2023/05/02 08:06:37;;;;;;;;;30.00;24.75;;;;;14.41;100.00;102172.88;5067479;28;45511;-71
2023/05/02 08:09:02;;;;;;;;;27.25;22.50;;;;;14.39;100.00;102165.78;5039498;28;62600;-70
2023/05/02 08:11:28;;;;;;;;;24.50;23.75;;;;;14.43;100.00;102178.22;5056818;28;45410;-70
2023/05/02 08:13:53;;;;;;;;;29.25;22.75;;;;;14.45;100.00;102173.84;5057818;28;45289;-71
2023/05/02 08:16:19;;;;;;;;;25.75;22.25;;;;;14.46;100.00;102170.31;5054808;28;45553;-71
2023/05/02 08:18:45;;;;;;;;;28.50;24.00;;;;;14.50;100.00;102173.97;5054353;28;45915;-71
2023/05/02 08:21:10;;;;;;;;;29.75;24.50;;;;;14.57;100.00;102175.84;5050207;28;45466;-71
2023/05/02 08:23:38;;;;;;;;;24.33;21.00;;;;;14.62;100.00;102176.81;5057511;28;45900;-71
2023/05/02 08:26:04;;;;;;;;;27.75;21.50;;;;;14.70;100.00;102171.59;5046261;28;45327;-71
2023/05/02 08:28:29;;;;;;;;;21.75;21.50;;;;;14.73;100.00;102159.25;5049216;28;47462;-71
2023/05/02 08:30:55;;;;;;;;;29.00;24.50;;;;;14.77;100.00;102179.69;5043857;28;45444;-71
2023/05/02 08:33:20;;;;;;;;;31.75;27.25;;;;;14.82;100.00;102167.38;5054866;28;45472;-72
2023/05/02 08:35:46;;;;;;;;;24.75;23.00;;;;;14.89;100.00;102171.00;5026216;28;45523;-71
2023/05/02 08:38:11;;;;;;;;;32.25;27.25;;;;;14.95;100.00;102171.09;5049859;28;65779;-71
2023/05/02 08:40:37;;;;;;;;;28.00;22.50;;;;;15.01;100.00;102178.25;5057376;28;45504;-71
2023/05/02 08:43:06;;;;;;;;;23.00;23.00;;;;;15.05;100.00;102169.47;5048311;28;45540;-70
2023/05/02 08:45:38;;;;;;;;;29.00;24.50;;;;;15.11;100.00;102185.50;5052963;28;45315;-71
2023/05/02 08:48:07;;;;;;;;;22.33;21.00;;;;;15.15;100.00;102182.91;5056414;28;45462;-71
2023/05/02 08:50:40;;;;;;;;;27.00;19.67;;;;;15.20;100.00;102191.84;5048579;28;46785;-71
2023/05/02 08:53:06;;;;;;;;;16.00;16.00;;;;;15.26;100.00;102195.47;5046628;28;45205;-71
2023/05/02 08:55:33;;;;;;;;;19.67;17.00;;;;;15.32;100.00;102187.56;5056812;28;45637;-72
2023/05/02 08:57:59;;;;;;;;;24.67;18.33;;;;;15.43;100.00;102199.25;5047197;28;46821;-71
2023/05/02 09:00:25;;;;;;;;;20.67;18.00;;;;;15.45;100.00;102185.09;5044425;28;45538;-70
2023/05/02 09:03:06;;;;;;;;;20.67;16.67;;;;;15.56;100.00;102189.66;5042613;28;45340;-72
2023/05/02 09:05:40;;;;;;;;;22.67;15.67;;;;;15.62;100.00;102193.28;5051207;28;45438;-71
2023/05/02 09:08:07;;;;;;;;;22.00;20.00;;;;;15.68;100.00;102189.84;5040967;28;46210;-71
2023/05/02 09:10:35;;;;;;;;;21.67;19.33;;;;;15.75;100.00;102186.34;5038548;28;45427;-71
2023/05/02 09:13:32;;;;;;;;;16.33;15.67;;;;;15.81;100.00;102194.41;5047314;28;45384;-70
2023/05/02 09:16:02;;;;;;;;;21.67;20.67;;;;;15.88;100.00;102198.06;5054742;28;45527;-71
2023/05/02 09:18:29;;;;;;;;;24.33;21.00;;;;;15.94;100.00;102203.44;5055042;28;46298;-71
2023/05/02 09:20:56;;;;;;;;;21.67;18.67;;;;;16.00;100.00;102211.50;5050114;28;45360;-70
2023/05/02 09:23:32;;;;;;;;;20.00;16.00;;;;;16.03;100.00;102214.19;5052298;28;45292;-71
2023/05/02 09:25:57;;;;;;;;;20.33;16.00;;;;;16.07;100.00;102217.78;5056529;28;45257;-70
2023/05/02 09:28:37;;;;;;;;;20.33;16.67;;;;;16.12;100.00;102232.94;5049839;28;45701;-71
2023/05/02 09:31:09;;;;;;;;;21.33;18.00;;;;;16.13;100.00;102220.50;5048963;28;45268;-71
2023/05/02 09:33:36;;;;;;;;;15.67;14.33;;;;;16.18;100.00;102229.44;5045997;28;45200;-71
2023/05/02 09:36:01;;;;;;;;;20.00;16.00;;;;;16.21;100.00;102224.16;5040841;28;45427;-71
2023/05/02 09:38:26;;;;;;;;;16.00;16.00;;;;;16.21;100.00;102227.72;5047753;28;45897;-71
2023/05/02 09:40:55;;;;;;;;;23.33;20.00;;;;;16.23;100.00;102223.28;5039534;28;67812;-70
2023/05/02 09:43:21;;;;;;;;;16.00;16.00;;;;;16.27;100.00;102231.31;5052925;28;45838;-71
2023/05/02 09:46:06;;;;;;;;;18.67;16.33;;;;;16.29;100.00;102227.78;5052739;28;45427;-71
2023/05/02 09:48:50;;;;;;;;;17.33;15.67;;;;;16.28;100.00;102225.09;5040792;28;48367;-71
2023/05/02 09:51:19;;;;;;;;;23.00;18.00;;;;;16.33;100.00;102224.25;5050832;28;45379;-72
2023/05/02 09:53:45;;;;;;;;;27.67;21.00;;;;;16.36;100.00;102223.41;5050060;28;45474;-71
2023/05/02 09:56:10;;;;;;;;;24.00;18.00;;;;;16.42;100.00;102228.81;5062088;28;45478;-71
2023/05/02 09:58:36;;;;;;;;;23.00;20.33;;;;;16.43;100.00;102233.25;5040044;28;64111;-71
2023/05/02 10:01:01;;;;;;;;;20.00;17.67;;;;;16.48;100.00;102232.41;5047234;28;45522;-72
2023/05/02 10:03:27;;;;;;;;;23.00;20.00;;;;;16.50;100.00;102227.09;5038637;28;45157;-71
2023/05/02 10:05:53;;;;;;;;;20.67;17.33;;;;;16.55;100.00;102225.34;5053294;28;45256;-71
2023/05/02 10:08:19;;;;;;;;;18.67;18.33;;;;;16.61;100.00;102225.41;5038025;28;46437;-71
2023/05/02 10:10:50;;;;;;;;;18.33;17.00;;;;;16.66;100.00;102229.00;5053151;28;45354;-71
2023/05/02 10:13:19;;;;;;;;;18.00;15.00;;;;;16.71;100.00;102226.41;5042268;28;45300;-71
2023/05/02 10:15:45;;;;;;;;;18.00;16.33;;;;;16.73;100.00;102216.66;5066107;28;45584;-71
2023/05/02 10:18:13;;;;;;;;;14.00;14.00;;;;;16.82;100.00;102231.81;5054313;28;55420;-71
2023/05/02 10:20:43;;;;;;;;;15.00;15.00;;;;;16.86;100.00;102229.19;5051658;28;45514;-71
2023/05/02 10:23:09;;;;;;;;;18.67;15.67;;;;;16.94;100.00;102229.28;5053477;28;45320;-71
2023/05/02 10:25:35;;;;;;;;;16.33;15.00;;;;;16.97;100.00;102219.50;5053366;28;45387;-71
2023/05/02 10:28:01;;;;;;;;;21.67;19.00;;;;;17.04;100.00;102225.75;5045231;28;45245;-71
2023/05/02 10:30:29;;;;;;;;;20.33;17.00;;;;;17.10;100.00;102223.16;5046650;28;45292;-72
2023/05/02 10:32:58;;;;;;;;;17.67;17.00;;;;;17.15;100.00;102237.41;5041585;28;45346;-71
2023/05/02 10:35:25;;;;;;;;;18.67;18.33;;;;;17.21;100.00;102236.56;5042598;28;45506;-71
2023/05/02 10:37:51;;;;;;;;;19.33;18.67;;;;;17.25;100.00;102230.34;5045280;28;46713;-71
2023/05/02 10:40:17;;;;;;;;;20.00;16.33;;;;;17.32;100.00;102231.28;5052586;28;45367;-71
2023/05/02 10:42:45;;;;;;;;;22.67;20.33;;;;;17.36;100.00;102230.38;5056180;28;45307;-71
2023/05/02 10:45:33;;;;;;;;;23.67;21.00;;;;;17.42;100.00;102242.03;5068140;28;45489;-72
2023/05/02 10:48:21;;;;;;;;;21.00;21.00;;;;;17.47;100.00;102239.34;5054647;28;45893;-71
2023/05/02 10:50:51;;;;;;;;;24.67;22.33;;;;;17.51;100.00;102236.72;5052658;28;45367;-72
2023/05/02 10:53:23;;;;;;;;;23.33;21.00;;;;;17.61;100.00;102240.31;5044337;28;45315;-71
2023/05/02 10:56:10;;;;;;;;;21.00;17.67;;;;;17.67;100.00;102240.34;5043896;28;45564;-71
2023/05/02 10:58:35;;;;;;;;;25.00;20.33;;;;;17.73;100.00;102229.72;5048487;28;46497;-72
2023/05/02 11:01:28;;;;;;;;;29.67;25.00;;;;;17.98;100.00;102233.38;5049390;28;45222;-72
2023/05/02 11:03:59;;;;;;;;;26.67;24.00;;;;;18.18;100.00;102228.06;5042371;28;45440;-71
2023/05/02 11:06:26;;;;;;;;;23.67;23.00;;;;;18.30;100.00;102228.09;5055236;28;45507;-71